sensor_id;sensor_type;location;lat;lon;timestamp;P1;durP1;ratioP1;P2;durP2;ratioP2
61344;SDS011;47216;42.656;23.232;2023-06-22T00:01:20;7.13;;;4.43;;
61344;SDS011;47216;42.656;23.232;2023-06-22T00:03:50;5.43;;;4.63;;
61344;SDS011;47216;42.656;23.232;2023-06-22T00:06:21;7.30;;;4.87;;
61344;SDS011;47216;42.656;23.232;2023-06-22T00:08:52;5.33;;;4.77;;
61344;SDS011;47216;42.656;23.232;2023-06-22T00:11:21;5.80;;;4.63;;
61344;SDS011;47216;42.656;23.232;2023-06-22T00:13:48;6.10;;;4.60;;
61344;SDS011;47216;42.656;23.232;2023-06-22T00:16:17;6.70;;;4.80;;
61344;SDS011;47216;42.656;23.232;2023-06-22T00:18:45;5.47;;;4.60;;
61344;SDS011;47216;42.656;23.232;2023-06-22T00:21:13;7.23;;;4.43;;
61344;SDS011;47216;42.656;23.232;2023-06-22T00:23:42;7.00;;;4.83;;
61344;SDS011;47216;42.656;23.232;2023-06-22T00:26:10;6.63;;;4.70;;
61344;SDS011;47216;42.656;23.232;2023-06-22T00:28:39;8.33;;;4.57;;
61344;SDS011;47216;42.656;23.232;2023-06-22T00:31:09;8.50;;;5.70;;
61344;SDS011;47216;42.656;23.232;2023-06-22T00:33:38;5.33;;;4.40;;
61344;SDS011;47216;42.656;23.232;2023-06-22T00:36:05;5.47;;;4.70;;
61344;SDS011;47216;42.656;23.232;2023-06-22T00:38:38;7.20;;;4.17;;
61344;SDS011;47216;42.656;23.232;2023-06-22T00:41:09;6.00;;;4.70;;
61344;SDS011;47216;42.656;23.232;2023-06-22T00:43:40;9.03;;;4.43;;
61344;SDS011;47216;42.656;23.232;2023-06-22T00:46:08;5.97;;;4.40;;
61344;SDS011;47216;42.656;23.232;2023-06-22T00:48:35;7.93;;;5.13;;
61344;SDS011;47216;42.656;23.232;2023-06-22T00:51:03;5.20;;;4.70;;
61344;SDS011;47216;42.656;23.232;2023-06-22T00:53:30;10.40;;;5.27;;
61344;SDS011;47216;42.656;23.232;2023-06-22T00:56:00;6.53;;;5.03;;
61344;SDS011;47216;42.656;23.232;2023-06-22T00:58:32;5.03;;;4.37;;
61344;SDS011;47216;42.656;23.232;2023-06-22T01:00:59;6.27;;;4.70;;
61344;SDS011;47216;42.656;23.232;2023-06-22T01:03:27;7.17;;;4.10;;
61344;SDS011;47216;42.656;23.232;2023-06-22T01:05:56;6.07;;;4.90;;
61344;SDS011;47216;42.656;23.232;2023-06-22T01:08:30;7.13;;;4.63;;
61344;SDS011;47216;42.656;23.232;2023-06-22T01:11:08;5.20;;;4.50;;
61344;SDS011;47216;42.656;23.232;2023-06-22T01:13:45;7.73;;;4.23;;
61344;SDS011;47216;42.656;23.232;2023-06-22T01:16:20;9.27;;;4.63;;
61344;SDS011;47216;42.656;23.232;2023-06-22T01:18:52;7.23;;;4.90;;
61344;SDS011;47216;42.656;23.232;2023-06-22T01:21:22;7.87;;;5.00;;
61344;SDS011;47216;42.656;23.232;2023-06-22T01:23:54;6.40;;;4.73;;
61344;SDS011;47216;42.656;23.232;2023-06-22T01:26:36;5.53;;;4.50;;
61344;SDS011;47216;42.656;23.232;2023-06-22T01:29:11;5.87;;;5.13;;
61344;SDS011;47216;42.656;23.232;2023-06-22T01:31:41;7.33;;;4.97;;
61344;SDS011;47216;42.656;23.232;2023-06-22T01:34:12;7.73;;;4.83;;
61344;SDS011;47216;42.656;23.232;2023-06-22T01:36:42;6.87;;;5.37;;
61344;SDS011;47216;42.656;23.232;2023-06-22T01:39:10;8.33;;;5.07;;
61344;SDS011;47216;42.656;23.232;2023-06-22T01:41:42;6.77;;;4.90;;
61344;SDS011;47216;42.656;23.232;2023-06-22T01:44:21;6.57;;;4.97;;
61344;SDS011;47216;42.656;23.232;2023-06-22T01:46:49;6.43;;;4.43;;
61344;SDS011;47216;42.656;23.232;2023-06-22T01:49:19;5.73;;;4.77;;
61344;SDS011;47216;42.656;23.232;2023-06-22T01:51:46;6.50;;;5.17;;
61344;SDS011;47216;42.656;23.232;2023-06-22T01:54:14;6.20;;;5.33;;
61344;SDS011;47216;42.656;23.232;2023-06-22T01:56:43;6.80;;;5.23;;
61344;SDS011;47216;42.656;23.232;2023-06-22T01:59:14;5.73;;;4.77;;
61344;SDS011;47216;42.656;23.232;2023-06-22T02:01:50;8.43;;;5.07;;
61344;SDS011;47216;42.656;23.232;2023-06-22T02:04:21;5.83;;;4.63;;
61344;SDS011;47216;42.656;23.232;2023-06-22T02:06:54;6.60;;;4.93;;
61344;SDS011;47216;42.656;23.232;2023-06-22T02:09:25;6.50;;;5.00;;
61344;SDS011;47216;42.656;23.232;2023-06-22T02:11:56;6.23;;;5.27;;
61344;SDS011;47216;42.656;23.232;2023-06-22T02:14:27;7.27;;;5.33;;
61344;SDS011;47216;42.656;23.232;2023-06-22T02:16:55;6.97;;;4.90;;
61344;SDS011;47216;42.656;23.232;2023-06-22T02:19:24;7.57;;;4.90;;
61344;SDS011;47216;42.656;23.232;2023-06-22T02:21:51;9.40;;;4.97;;
61344;SDS011;47216;42.656;23.232;2023-06-22T02:24:18;6.37;;;4.63;;
61344;SDS011;47216;42.656;23.232;2023-06-22T02:26:49;7.27;;;5.23;;
61344;SDS011;47216;42.656;23.232;2023-06-22T02:29:17;8.27;;;4.73;;
61344;SDS011;47216;42.656;23.232;2023-06-22T02:31:47;5.73;;;4.63;;
61344;SDS011;47216;42.656;23.232;2023-06-22T02:34:16;6.47;;;5.03;;
61344;SDS011;47216;42.656;23.232;2023-06-22T02:36:45;6.00;;;5.10;;
61344;SDS011;47216;42.656;23.232;2023-06-22T02:39:16;6.03;;;5.43;;
61344;SDS011;47216;42.656;23.232;2023-06-22T02:41:45;7.40;;;4.93;;
61344;SDS011;47216;42.656;23.232;2023-06-22T02:44:12;7.27;;;5.23;;
61344;SDS011;47216;42.656;23.232;2023-06-22T02:46:44;5.33;;;4.83;;
61344;SDS011;47216;42.656;23.232;2023-06-22T02:49:15;5.73;;;5.03;;
61344;SDS011;47216;42.656;23.232;2023-06-22T02:51:45;5.37;;;4.60;;
61344;SDS011;47216;42.656;23.232;2023-06-22T02:54:13;8.17;;;4.73;;
61344;SDS011;47216;42.656;23.232;2023-06-22T02:56:40;6.63;;;5.07;;
61344;SDS011;47216;42.656;23.232;2023-06-22T02:59:09;7.67;;;5.70;;
61344;SDS011;47216;42.656;23.232;2023-06-22T03:01:37;6.40;;;5.13;;
61344;SDS011;47216;42.656;23.232;2023-06-22T03:04:06;8.27;;;5.00;;
61344;SDS011;47216;42.656;23.232;2023-06-22T03:06:38;7.17;;;5.27;;
61344;SDS011;47216;42.656;23.232;2023-06-22T03:09:08;6.60;;;5.43;;
61344;SDS011;47216;42.656;23.232;2023-06-22T03:11:36;6.40;;;5.17;;
61344;SDS011;47216;42.656;23.232;2023-06-22T03:14:04;6.30;;;4.80;;
61344;SDS011;47216;42.656;23.232;2023-06-22T03:16:32;7.13;;;5.53;;
61344;SDS011;47216;42.656;23.232;2023-06-22T03:18:59;6.13;;;5.50;;
61344;SDS011;47216;42.656;23.232;2023-06-22T03:21:27;7.90;;;5.57;;
61344;SDS011;47216;42.656;23.232;2023-06-22T03:23:59;9.80;;;4.83;;
61344;SDS011;47216;42.656;23.232;2023-06-22T03:26:27;6.60;;;5.20;;
61344;SDS011;47216;42.656;23.232;2023-06-22T03:29:01;8.10;;;5.47;;
61344;SDS011;47216;42.656;23.232;2023-06-22T03:31:57;6.10;;;5.03;;
61344;SDS011;47216;42.656;23.232;2023-06-22T03:34:43;6.47;;;5.00;;
61344;SDS011;47216;42.656;23.232;2023-06-22T03:37:31;6.73;;;5.60;;
61344;SDS011;47216;42.656;23.232;2023-06-22T03:40:23;9.73;;;5.80;;
61344;SDS011;47216;42.656;23.232;2023-06-22T03:43:20;8.33;;;6.17;;
61344;SDS011;47216;42.656;23.232;2023-06-22T03:46:13;7.30;;;5.40;;
61344;SDS011;47216;42.656;23.232;2023-06-22T03:49:01;6.77;;;5.13;;
61344;SDS011;47216;42.656;23.232;2023-06-22T03:51:40;6.33;;;5.37;;
61344;SDS011;47216;42.656;23.232;2023-06-22T03:54:31;6.77;;;5.73;;
61344;SDS011;47216;42.656;23.232;2023-06-22T03:57:21;7.40;;;5.47;;
61344;SDS011;47216;42.656;23.232;2023-06-22T04:00:01;6.57;;;5.77;;
61344;SDS011;47216;42.656;23.232;2023-06-22T04:02:44;7.23;;;5.27;;
61344;SDS011;47216;42.656;23.232;2023-06-22T04:05:31;14.47;;;5.80;;
61344;SDS011;47216;42.656;23.232;2023-06-22T04:08:13;6.73;;;5.83;;
61344;SDS011;47216;42.656;23.232;2023-06-22T04:10:48;7.57;;;5.93;;
61344;SDS011;47216;42.656;23.232;2023-06-22T04:13:33;8.40;;;6.53;;
61344;SDS011;47216;42.656;23.232;2023-06-22T04:16:26;7.37;;;5.83;;
61344;SDS011;47216;42.656;23.232;2023-06-22T04:19:17;10.30;;;6.40;;
61344;SDS011;47216;42.656;23.232;2023-06-22T04:22:01;9.83;;;5.90;;
61344;SDS011;47216;42.656;23.232;2023-06-22T04:24:42;10.90;;;6.10;;
61344;SDS011;47216;42.656;23.232;2023-06-22T04:27:31;8.23;;;6.23;;
61344;SDS011;47216;42.656;23.232;2023-06-22T04:30:24;8.73;;;6.50;;
61344;SDS011;47216;42.656;23.232;2023-06-22T04:33:02;7.93;;;6.00;;
61344;SDS011;47216;42.656;23.232;2023-06-22T04:35:47;7.77;;;5.63;;
61344;SDS011;47216;42.656;23.232;2023-06-22T04:38:31;7.20;;;6.27;;
61344;SDS011;47216;42.656;23.232;2023-06-22T04:41:10;8.50;;;6.27;;
61344;SDS011;47216;42.656;23.232;2023-06-22T04:44:03;9.43;;;5.97;;
61344;SDS011;47216;42.656;23.232;2023-06-22T04:46:40;10.03;;;6.70;;
61344;SDS011;47216;42.656;23.232;2023-06-22T04:49:24;7.67;;;6.37;;
61344;SDS011;47216;42.656;23.232;2023-06-22T04:52:06;8.20;;;6.40;;
61344;SDS011;47216;42.656;23.232;2023-06-22T04:54:40;12.20;;;5.97;;
61344;SDS011;47216;42.656;23.232;2023-06-22T04:57:26;15.63;;;6.80;;
61344;SDS011;47216;42.656;23.232;2023-06-22T05:00:16;15.53;;;6.80;;
61344;SDS011;47216;42.656;23.232;2023-06-22T05:03:11;14.70;;;6.90;;
61344;SDS011;47216;42.656;23.232;2023-06-22T05:05:53;12.80;;;6.70;;
61344;SDS011;47216;42.656;23.232;2023-06-22T05:08:40;10.37;;;6.77;;
61344;SDS011;47216;42.656;23.232;2023-06-22T05:11:07;14.97;;;6.50;;
61344;SDS011;47216;42.656;23.232;2023-06-22T05:13:47;8.83;;;6.63;;
61344;SDS011;47216;42.656;23.232;2023-06-22T05:16:23;7.83;;;6.30;;
61344;SDS011;47216;42.656;23.232;2023-06-22T05:22:05;6.93;;;6.23;;
61344;SDS011;47216;42.656;23.232;2023-06-22T05:24:44;11.57;;;6.25;;
61344;SDS011;47216;42.656;23.232;2023-06-22T05:27:28;8.35;;;6.30;;
61344;SDS011;47216;42.656;23.232;2023-06-22T05:29:56;10.03;;;6.63;;
61344;SDS011;47216;42.656;23.232;2023-06-22T05:32:31;8.73;;;6.15;;
61344;SDS011;47216;42.656;23.232;2023-06-22T05:35:13;13.20;;;6.78;;
61344;SDS011;47216;42.656;23.232;2023-06-22T05:37:57;17.85;;;7.43;;
61344;SDS011;47216;42.656;23.232;2023-06-22T05:40:36;17.27;;;7.13;;
61344;SDS011;47216;42.656;23.232;2023-06-22T05:43:06;17.42;;;8.52;;
61344;SDS011;47216;42.656;23.232;2023-06-22T05:45:48;15.50;;;8.45;;
61344;SDS011;47216;42.656;23.232;2023-06-22T05:48:32;19.27;;;9.23;;
61344;SDS011;47216;42.656;23.232;2023-06-22T05:51:16;16.77;;;10.10;;
61344;SDS011;47216;42.656;23.232;2023-06-22T05:54:11;29.20;;;9.57;;
61344;SDS011;47216;42.656;23.232;2023-06-22T05:59:41;15.10;;;8.93;;
61344;SDS011;47216;42.656;23.232;2023-06-22T06:02:24;19.58;;;9.30;;
61344;SDS011;47216;42.656;23.232;2023-06-22T06:05:12;22.88;;;10.60;;
61344;SDS011;47216;42.656;23.232;2023-06-22T06:07:48;19.30;;;9.32;;
61344;SDS011;47216;42.656;23.232;2023-06-22T06:10:34;14.82;;;9.73;;
61344;SDS011;47216;42.656;23.232;2023-06-22T06:13:11;18.83;;;10.13;;
61344;SDS011;47216;42.656;23.232;2023-06-22T06:16:00;16.42;;;9.45;;
61344;SDS011;47216;42.656;23.232;2023-06-22T06:18:41;26.58;;;9.90;;
61344;SDS011;47216;42.656;23.232;2023-06-22T06:21:18;13.23;;;8.55;;
61344;SDS011;47216;42.656;23.232;2023-06-22T06:23:55;19.17;;;8.23;;
61344;SDS011;47216;42.656;23.232;2023-06-22T06:26:34;10.20;;;8.02;;
61344;SDS011;47216;42.656;23.232;2023-06-22T06:29:11;11.10;;;8.20;;
61344;SDS011;47216;42.656;23.232;2023-06-22T06:31:45;11.68;;;8.18;;
61344;SDS011;47216;42.656;23.232;2023-06-22T06:34:30;13.10;;;9.15;;
61344;SDS011;47216;42.656;23.232;2023-06-22T06:37:16;19.98;;;7.97;;
61344;SDS011;47216;42.656;23.232;2023-06-22T06:39:51;12.45;;;8.77;;
61344;SDS011;47216;42.656;23.232;2023-06-22T06:42:30;14.93;;;8.93;;
61344;SDS011;47216;42.656;23.232;2023-06-22T06:45:00;10.23;;;7.80;;
61344;SDS011;47216;42.656;23.232;2023-06-22T06:47:33;18.58;;;8.13;;
61344;SDS011;47216;42.656;23.232;2023-06-22T06:50:15;13.30;;;8.02;;
61344;SDS011;47216;42.656;23.232;2023-06-22T06:52:55;13.02;;;7.82;;
61344;SDS011;47216;42.656;23.232;2023-06-22T06:55:55;21.10;;;7.68;;
61344;SDS011;47216;42.656;23.232;2023-06-22T06:58:35;11.60;;;7.28;;
61344;SDS011;47216;42.656;23.232;2023-06-22T07:01:23;10.48;;;7.78;;
61344;SDS011;47216;42.656;23.232;2023-06-22T07:03:51;13.48;;;8.27;;
61344;SDS011;47216;42.656;23.232;2023-06-22T07:06:23;12.15;;;7.93;;
61344;SDS011;47216;42.656;23.232;2023-06-22T07:08:55;10.70;;;7.75;;
61344;SDS011;47216;42.656;23.232;2023-06-22T07:11:25;11.82;;;7.68;;
61344;SDS011;47216;42.656;23.232;2023-06-22T07:13:52;11.23;;;7.93;;
61344;SDS011;47216;42.656;23.232;2023-06-22T07:16:26;14.38;;;8.43;;
61344;SDS011;47216;42.656;23.232;2023-06-22T07:18:54;13.32;;;8.68;;
61344;SDS011;47216;42.656;23.232;2023-06-22T07:21:24;9.82;;;8.07;;
61344;SDS011;47216;42.656;23.232;2023-06-22T07:23:51;9.10;;;7.47;;
61344;SDS011;47216;42.656;23.232;2023-06-22T07:26:20;9.68;;;7.80;;
61344;SDS011;47216;42.656;23.232;2023-06-22T07:28:50;7.47;;;6.57;;
61344;SDS011;47216;42.656;23.232;2023-06-22T07:31:19;10.82;;;7.47;;
61344;SDS011;47216;42.656;23.232;2023-06-22T07:33:47;9.63;;;7.97;;
61344;SDS011;47216;42.656;23.232;2023-06-22T07:36:16;9.32;;;7.43;;
61344;SDS011;47216;42.656;23.232;2023-06-22T07:38:44;17.98;;;7.88;;
61344;SDS011;47216;42.656;23.232;2023-06-22T07:41:11;10.57;;;8.35;;
61344;SDS011;47216;42.656;23.232;2023-06-22T07:43:39;8.88;;;7.97;;
61344;SDS011;47216;42.656;23.232;2023-06-22T07:46:07;9.55;;;8.63;;
61344;SDS011;47216;42.656;23.232;2023-06-22T07:48:36;9.70;;;8.38;;
61344;SDS011;47216;42.656;23.232;2023-06-22T07:51:04;10.55;;;9.05;;
61344;SDS011;47216;42.656;23.232;2023-06-22T07:53:32;11.25;;;8.13;;
61344;SDS011;47216;42.656;23.232;2023-06-22T07:56:00;11.35;;;8.27;;
61344;SDS011;47216;42.656;23.232;2023-06-22T07:58:32;9.10;;;7.80;;
61344;SDS011;47216;42.656;23.232;2023-06-22T08:01:00;10.23;;;8.98;;
61344;SDS011;47216;42.656;23.232;2023-06-22T08:03:29;10.90;;;8.63;;
61344;SDS011;47216;42.656;23.232;2023-06-22T08:05:56;12.93;;;9.02;;
61344;SDS011;47216;42.656;23.232;2023-06-22T08:08:23;14.60;;;9.40;;
61344;SDS011;47216;42.656;23.232;2023-06-22T08:10:50;13.02;;;8.18;;
61344;SDS011;47216;42.656;23.232;2023-06-22T08:13:17;12.25;;;8.52;;
61344;SDS011;47216;42.656;23.232;2023-06-22T08:15:44;19.42;;;8.90;;
61344;SDS011;47216;42.656;23.232;2023-06-22T08:18:12;11.43;;;10.07;;
61344;SDS011;47216;42.656;23.232;2023-06-22T08:20:40;10.75;;;9.05;;
61344;SDS011;47216;42.656;23.232;2023-06-22T08:23:07;16.52;;;9.48;;
61344;SDS011;47216;42.656;23.232;2023-06-22T08:25:34;11.30;;;8.82;;
61344;SDS011;47216;42.656;23.232;2023-06-22T08:28:01;10.07;;;8.98;;
61344;SDS011;47216;42.656;23.232;2023-06-22T08:30:29;11.05;;;8.75;;
61344;SDS011;47216;42.656;23.232;2023-06-22T08:32:56;10.00;;;8.93;;
61344;SDS011;47216;42.656;23.232;2023-06-22T08:35:25;10.57;;;9.48;;
61344;SDS011;47216;42.656;23.232;2023-06-22T08:37:54;10.70;;;9.02;;
61344;SDS011;47216;42.656;23.232;2023-06-22T08:40:22;12.50;;;9.18;;
61344;SDS011;47216;42.656;23.232;2023-06-22T08:42:49;11.68;;;8.50;;
61344;SDS011;47216;42.656;23.232;2023-06-22T08:45:17;10.05;;;9.00;;
61344;SDS011;47216;42.656;23.232;2023-06-22T08:47:44;8.63;;;7.75;;
61344;SDS011;47216;42.656;23.232;2023-06-22T08:50:14;9.02;;;8.13;;
61344;SDS011;47216;42.656;23.232;2023-06-22T08:52:42;8.82;;;7.97;;
61344;SDS011;47216;42.656;23.232;2023-06-22T08:55:12;21.75;;;8.50;;
61344;SDS011;47216;42.656;23.232;2023-06-22T08:57:40;9.63;;;8.07;;
61344;SDS011;47216;42.656;23.232;2023-06-22T09:00:09;9.48;;;7.90;;
61344;SDS011;47216;42.656;23.232;2023-06-22T09:02:45;13.93;;;7.80;;
61344;SDS011;47216;42.656;23.232;2023-06-22T09:05:15;8.35;;;6.72;;
61344;SDS011;47216;42.656;23.232;2023-06-22T09:07:45;10.80;;;7.63;;
61344;SDS011;47216;42.656;23.232;2023-06-22T09:10:15;8.85;;;7.95;;
61344;SDS011;47216;42.656;23.232;2023-06-22T09:12:44;9.45;;;7.22;;
61344;SDS011;47216;42.656;23.232;2023-06-22T09:15:12;9.13;;;7.38;;
61344;SDS011;47216;42.656;23.232;2023-06-22T09:17:40;8.82;;;7.57;;
61344;SDS011;47216;42.656;23.232;2023-06-22T09:20:09;8.32;;;6.07;;
61344;SDS011;47216;42.656;23.232;2023-06-22T09:22:38;7.63;;;6.82;;
61344;SDS011;47216;42.656;23.232;2023-06-22T09:25:06;9.40;;;7.15;;
61344;SDS011;47216;42.656;23.232;2023-06-22T09:27:36;7.65;;;6.90;;
61344;SDS011;47216;42.656;23.232;2023-06-22T09:30:05;9.10;;;7.05;;
61344;SDS011;47216;42.656;23.232;2023-06-22T09:32:33;9.40;;;6.60;;
61344;SDS011;47216;42.656;23.232;2023-06-22T09:35:01;7.60;;;6.78;;
61344;SDS011;47216;42.656;23.232;2023-06-22T09:37:30;6.78;;;6.03;;
61344;SDS011;47216;42.656;23.232;2023-06-22T09:39:57;9.13;;;5.88;;
61344;SDS011;47216;42.656;23.232;2023-06-22T09:42:25;9.38;;;6.95;;
61344;SDS011;47216;42.656;23.232;2023-06-22T09:44:53;7.35;;;6.63;;
61344;SDS011;47216;42.656;23.232;2023-06-22T09:47:20;9.55;;;6.75;;
61344;SDS011;47216;42.656;23.232;2023-06-22T09:49:47;15.52;;;6.88;;
61344;SDS011;47216;42.656;23.232;2023-06-22T09:52:15;8.38;;;6.97;;
61344;SDS011;47216;42.656;23.232;2023-06-22T09:54:42;7.72;;;6.93;;
61344;SDS011;47216;42.656;23.232;2023-06-22T09:57:09;8.48;;;6.95;;
61344;SDS011;47216;42.656;23.232;2023-06-22T09:59:36;8.20;;;7.22;;
61344;SDS011;47216;42.656;23.232;2023-06-22T10:02:07;8.43;;;6.55;;
61344;SDS011;47216;42.656;23.232;2023-06-22T10:04:34;8.80;;;7.20;;
61344;SDS011;47216;42.656;23.232;2023-06-22T10:07:02;7.78;;;6.95;;
61344;SDS011;47216;42.656;23.232;2023-06-22T10:09:29;8.15;;;6.78;;
61344;SDS011;47216;42.656;23.232;2023-06-22T10:11:56;8.80;;;6.90;;
61344;SDS011;47216;42.656;23.232;2023-06-22T10:14:23;7.82;;;6.82;;
61344;SDS011;47216;42.656;23.232;2023-06-22T10:16:52;7.13;;;6.28;;
61344;SDS011;47216;42.656;23.232;2023-06-22T10:19:20;16.73;;;6.82;;
61344;SDS011;47216;42.656;23.232;2023-06-22T10:21:47;10.43;;;6.22;;
61344;SDS011;47216;42.656;23.232;2023-06-22T10:24:14;9.13;;;6.45;;
61344;SDS011;47216;42.656;23.232;2023-06-22T10:26:41;7.85;;;6.50;;
61344;SDS011;47216;42.656;23.232;2023-06-22T10:29:08;10.48;;;6.70;;
61344;SDS011;47216;42.656;23.232;2023-06-22T10:31:35;12.10;;;6.50;;
61344;SDS011;47216;42.656;23.232;2023-06-22T10:34:02;7.50;;;6.20;;
61344;SDS011;47216;42.656;23.232;2023-06-22T10:36:31;7.20;;;6.40;;
61344;SDS011;47216;42.656;23.232;2023-06-22T10:38:59;7.22;;;6.47;;
61344;SDS011;47216;42.656;23.232;2023-06-22T10:41:27;8.57;;;6.40;;
61344;SDS011;47216;42.656;23.232;2023-06-22T10:43:56;7.22;;;6.30;;
61344;SDS011;47216;42.656;23.232;2023-06-22T10:46:24;7.55;;;6.85;;
61344;SDS011;47216;42.656;23.232;2023-06-22T10:48:53;7.35;;;6.65;;
61344;SDS011;47216;42.656;23.232;2023-06-22T10:51:22;7.15;;;6.45;;
61344;SDS011;47216;42.656;23.232;2023-06-22T10:53:55;7.03;;;6.32;;
61344;SDS011;47216;42.656;23.232;2023-06-22T10:56:24;7.78;;;6.45;;
61344;SDS011;47216;42.656;23.232;2023-06-22T10:58:52;6.80;;;6.15;;
61344;SDS011;47216;42.656;23.232;2023-06-22T11:01:21;7.07;;;6.38;;
61344;SDS011;47216;42.656;23.232;2023-06-22T11:03:49;11.38;;;6.47;;
61344;SDS011;47216;42.656;23.232;2023-06-22T11:06:17;9.15;;;6.57;;
61344;SDS011;47216;42.656;23.232;2023-06-22T11:08:45;7.32;;;6.60;;
61344;SDS011;47216;42.656;23.232;2023-06-22T11:11:14;14.43;;;6.85;;
61344;SDS011;47216;42.656;23.232;2023-06-22T11:13:44;9.18;;;6.88;;
61344;SDS011;47216;42.656;23.232;2023-06-22T11:16:12;10.82;;;7.05;;
61344;SDS011;47216;42.656;23.232;2023-06-22T11:18:39;7.50;;;6.72;;
61344;SDS011;47216;42.656;23.232;2023-06-22T11:21:07;7.45;;;6.72;;
61344;SDS011;47216;42.656;23.232;2023-06-22T11:23:35;8.65;;;6.47;;
61344;SDS011;47216;42.656;23.232;2023-06-22T11:26:02;12.13;;;6.90;;
61344;SDS011;47216;42.656;23.232;2023-06-22T11:28:34;7.18;;;6.22;;
61344;SDS011;47216;42.656;23.232;2023-06-22T11:31:02;7.18;;;6.47;;
61344;SDS011;47216;42.656;23.232;2023-06-22T11:33:33;7.90;;;6.20;;
61344;SDS011;47216;42.656;23.232;2023-06-22T11:36:03;8.02;;;6.28;;
61344;SDS011;47216;42.656;23.232;2023-06-22T11:38:32;9.32;;;6.68;;
61344;SDS011;47216;42.656;23.232;2023-06-22T11:41:02;7.72;;;5.82;;
61344;SDS011;47216;42.656;23.232;2023-06-22T11:43:29;8.82;;;6.75;;
61344;SDS011;47216;42.656;23.232;2023-06-22T11:46:01;7.88;;;6.18;;
61344;SDS011;47216;42.656;23.232;2023-06-22T11:48:29;7.60;;;6.78;;
61344;SDS011;47216;42.656;23.232;2023-06-22T11:50:58;8.02;;;6.82;;
61344;SDS011;47216;42.656;23.232;2023-06-22T11:53:28;9.32;;;6.88;;
61344;SDS011;47216;42.656;23.232;2023-06-22T11:55:56;11.50;;;7.18;;
61344;SDS011;47216;42.656;23.232;2023-06-22T11:58:26;10.73;;;7.28;;
61344;SDS011;47216;42.656;23.232;2023-06-22T12:00:56;6.50;;;5.90;;
61344;SDS011;47216;42.656;23.232;2023-06-22T12:03:28;12.15;;;7.43;;
61344;SDS011;47216;42.656;23.232;2023-06-22T12:05:57;9.02;;;7.75;;
61344;SDS011;47216;42.656;23.232;2023-06-22T12:08:25;9.25;;;7.85;;
61344;SDS011;47216;42.656;23.232;2023-06-22T12:10:54;9.52;;;7.53;;
61344;SDS011;47216;42.656;23.232;2023-06-22T12:13:24;10.07;;;7.88;;
61344;SDS011;47216;42.656;23.232;2023-06-22T12:15:54;12.85;;;7.50;;
61344;SDS011;47216;42.656;23.232;2023-06-22T12:18:22;11.32;;;8.30;;
61344;SDS011;47216;42.656;23.232;2023-06-22T12:20:53;13.90;;;8.95;;
61344;SDS011;47216;42.656;23.232;2023-06-22T12:23:22;10.45;;;8.43;;
61344;SDS011;47216;42.656;23.232;2023-06-22T12:25:50;12.82;;;8.43;;
61344;SDS011;47216;42.656;23.232;2023-06-22T12:28:19;8.57;;;7.30;;
61344;SDS011;47216;42.656;23.232;2023-06-22T12:30:49;9.70;;;7.30;;
61344;SDS011;47216;42.656;23.232;2023-06-22T12:33:17;9.63;;;7.93;;
61344;SDS011;47216;42.656;23.232;2023-06-22T12:35:45;11.98;;;8.15;;
61344;SDS011;47216;42.656;23.232;2023-06-22T12:38:15;9.88;;;7.63;;
61344;SDS011;47216;42.656;23.232;2023-06-22T12:40:43;10.07;;;6.85;;
61344;SDS011;47216;42.656;23.232;2023-06-22T12:43:13;12.45;;;7.20;;
61344;SDS011;47216;42.656;23.232;2023-06-22T12:45:42;15.10;;;7.07;;
61344;SDS011;47216;42.656;23.232;2023-06-22T12:48:11;19.08;;;7.63;;
61344;SDS011;47216;42.656;23.232;2023-06-22T12:50:41;14.20;;;6.60;;
61344;SDS011;47216;42.656;23.232;2023-06-22T12:53:09;11.88;;;7.03;;
61344;SDS011;47216;42.656;23.232;2023-06-22T12:55:40;10.20;;;6.93;;
61344;SDS011;47216;42.656;23.232;2023-06-22T12:58:09;12.27;;;7.72;;
61344;SDS011;47216;42.656;23.232;2023-06-22T13:00:40;13.32;;;7.32;;
61344;SDS011;47216;42.656;23.232;2023-06-22T13:03:09;10.98;;;6.57;;
61344;SDS011;47216;42.656;23.232;2023-06-22T13:05:37;9.52;;;6.72;;
61344;SDS011;47216;42.656;23.232;2023-06-22T13:08:05;13.88;;;7.20;;
61344;SDS011;47216;42.656;23.232;2023-06-22T13:10:33;12.73;;;7.30;;
61344;SDS011;47216;42.656;23.232;2023-06-22T13:13:03;12.93;;;6.82;;
61344;SDS011;47216;42.656;23.232;2023-06-22T13:15:32;8.48;;;6.25;;
61344;SDS011;47216;42.656;23.232;2023-06-22T13:18:01;12.40;;;5.82;;
61344;SDS011;47216;42.656;23.232;2023-06-22T13:20:30;10.35;;;6.82;;
61344;SDS011;47216;42.656;23.232;2023-06-22T13:22:59;11.63;;;6.22;;
61344;SDS011;47216;42.656;23.232;2023-06-22T13:25:28;12.30;;;6.80;;
61344;SDS011;47216;42.656;23.232;2023-06-22T13:27:55;11.63;;;7.05;;
61344;SDS011;47216;42.656;23.232;2023-06-22T13:30:24;8.88;;;6.65;;
61344;SDS011;47216;42.656;23.232;2023-06-22T13:32:53;12.30;;;6.65;;
61344;SDS011;47216;42.656;23.232;2023-06-22T13:35:22;8.77;;;6.40;;
61344;SDS011;47216;42.656;23.232;2023-06-22T13:37:50;7.97;;;6.00;;
61344;SDS011;47216;42.656;23.232;2023-06-22T13:40:18;10.82;;;6.55;;
61344;SDS011;47216;42.656;23.232;2023-06-22T13:42:46;9.32;;;6.10;;
61344;SDS011;47216;42.656;23.232;2023-06-22T13:45:14;8.07;;;6.65;;
61344;SDS011;47216;42.656;23.232;2023-06-22T13:47:46;8.43;;;6.30;;
61344;SDS011;47216;42.656;23.232;2023-06-22T13:50:15;9.88;;;6.68;;
61344;SDS011;47216;42.656;23.232;2023-06-22T13:52:44;8.00;;;6.32;;
61344;SDS011;47216;42.656;23.232;2023-06-22T13:55:13;8.20;;;7.15;;
61344;SDS011;47216;42.656;23.232;2023-06-22T13:57:42;12.45;;;6.75;;
61344;SDS011;47216;42.656;23.232;2023-06-22T14:00:11;8.02;;;6.93;;
61344;SDS011;47216;42.656;23.232;2023-06-22T14:02:39;10.43;;;7.70;;
61344;SDS011;47216;42.656;23.232;2023-06-22T14:05:09;8.05;;;6.97;;
61344;SDS011;47216;42.656;23.232;2023-06-22T14:07:38;7.50;;;6.40;;
61344;SDS011;47216;42.656;23.232;2023-06-22T14:10:06;9.18;;;6.75;;
61344;SDS011;47216;42.656;23.232;2023-06-22T14:12:34;12.43;;;6.47;;
61344;SDS011;47216;42.656;23.232;2023-06-22T14:15:03;10.27;;;6.78;;
61344;SDS011;47216;42.656;23.232;2023-06-22T14:17:33;8.65;;;6.70;;
61344;SDS011;47216;42.656;23.232;2023-06-22T14:20:02;8.35;;;6.60;;
61344;SDS011;47216;42.656;23.232;2023-06-22T14:22:35;11.10;;;7.45;;
61344;SDS011;47216;42.656;23.232;2023-06-22T14:25:05;13.43;;;7.43;;
61344;SDS011;47216;42.656;23.232;2023-06-22T14:27:33;8.40;;;7.13;;
61344;SDS011;47216;42.656;23.232;2023-06-22T14:30:02;8.15;;;7.10;;
61344;SDS011;47216;42.656;23.232;2023-06-22T14:32:30;11.80;;;6.80;;
61344;SDS011;47216;42.656;23.232;2023-06-22T14:34:58;10.77;;;7.38;;
61344;SDS011;47216;42.656;23.232;2023-06-22T14:37:27;9.88;;;7.65;;
61344;SDS011;47216;42.656;23.232;2023-06-22T14:39:56;11.20;;;7.40;;
61344;SDS011;47216;42.656;23.232;2023-06-22T14:42:24;8.50;;;7.43;;
61344;SDS011;47216;42.656;23.232;2023-06-22T14:44:53;11.80;;;7.20;;
61344;SDS011;47216;42.656;23.232;2023-06-22T14:47:22;10.50;;;8.10;;
61344;SDS011;47216;42.656;23.232;2023-06-22T14:49:49;9.90;;;8.02;;
61344;SDS011;47216;42.656;23.232;2023-06-22T14:52:17;10.30;;;8.05;;
61344;SDS011;47216;42.656;23.232;2023-06-22T14:54:45;9.57;;;7.78;;
61344;SDS011;47216;42.656;23.232;2023-06-22T14:57:16;11.02;;;7.35;;
61344;SDS011;47216;42.656;23.232;2023-06-22T14:59:45;11.02;;;7.85;;
61344;SDS011;47216;42.656;23.232;2023-06-22T15:02:14;12.00;;;8.52;;